SKSM/SMR METAR and TAF weather

Enter ICAO airport designator
Station Type Date Time Source
SKSM METAR 2022/08/16 18:00 UTC NOAA

SKSM 161800Z 15007KT 9999 -DZ SCT020 SCT070 27/24 Q1013 RERA RMK CB/E A2993


Station Type Date Time Source
SKSM Decoded METAR 2022/08/16 18:00 UTC NOAA

Santa Marta / Simon Bolivar, Colombia (SKSM) 11-08N 074-14W 14M
Aug 16, 2022 - 02:00 PM EDT / 2022.08.16 1800 UTC
Wind: from the SSE (150 degrees) at 8 MPH (7 KT):0
Visibility: greater than 7 mile(s):0
Sky conditions: partly cloudy
Weather: light drizzle; rain during the past hour; Cumulonimbus clouds observed
Temperature: 80 F (27 C)
Dew Point: 75 F (24 C)
Relative Humidity: 83%
Pressure (altimeter): 29.91 in. Hg (1013 hPa)
ob: SKSM 161800Z 15007KT 9999 -DZ SCT020 SCT070 27/24 Q1013 RERA RMK CB/E A2993
cycle: 18

Station Type Date Time Source
SKSM TAF 2022/08/16 18:40 UTC NOAA

TAF SKSM 161630Z 1618/1718 20010KT 9999 FEW020
TEMPO 1618/1621 RA FEW017CB BKN070
BECMG 1700/1702 VRB02KT
TEMPO 1710/1713 FEW020 BKN070 TX32/1619Z TN24/1710Z

Example: see airport list